Time;durP1;ratioP1;P1;durP2;ratioP2;P2;SDS_P1;SDS_P2;PMS_P1;PMS_P2;Temp;Humidity;BMP_temperature;BMP_pressure;BME280_temperature;BME280_humidity;BME280_pressure;Samples;Min_cycle;Max_cycle;Signal;HPM_P1;HPM_P2
2022/10/09 00:01:01;;;;;;;;;;;12.60;89.50;;;;;;5039990;28;19951;-69
2022/10/09 00:03:27;;;;;;;;;;;12.60;89.60;;;;;;5032474;28;20472;-69
2022/10/09 00:05:54;;;;;;;;;;;12.60;89.60;;;;;;5039280;28;20327;-69
2022/10/09 00:08:20;;;;;;;;;;;12.60;89.60;;;;;;5043317;28;19936;-69
2022/10/09 00:10:48;;;;;;;;;;;12.50;89.70;;;;;;5042571;28;19936;-69
2022/10/09 00:13:15;;;;;;;;;;;12.50;89.60;;;;;;5041888;28;20016;-69
2022/10/09 00:15:42;;;;;;;;;;;12.50;89.60;;;;;;5043209;28;20324;-69
2022/10/09 00:18:10;;;;;;;;;;;12.50;89.80;;;;;;5033342;28;20345;-68
2022/10/09 00:20:37;;;;;;;;;;;12.50;89.80;;;;;;5036441;28;20331;-69
2022/10/09 00:23:04;;;;;;;;;;;12.40;89.90;;;;;;5032217;28;19968;-68
2022/10/09 00:25:31;;;;;;;;;;;12.40;89.80;;;;;;5042833;28;19936;-69
2022/10/09 00:27:59;;;;;;;;;;;12.40;89.80;;;;;;5040724;28;19936;-68
2022/10/09 00:30:26;;;;;;;;;;;12.40;89.90;;;;;;5041358;28;19939;-69
2022/10/09 00:32:52;;;;;;;;;;;12.40;90.00;;;;;;5038122;28;19929;-69
2022/10/09 00:35:19;;;;;;;;;;;12.40;90.00;;;;;;5042962;28;19948;-69
2022/10/09 00:37:45;;;;;;;;;;;12.30;90.00;;;;;;5042086;28;19933;-69
2022/10/09 00:40:12;;;;;;;;;;;12.30;90.00;;;;;;5034399;28;19929;-68
2022/10/09 00:42:39;;;;;;;;;;;12.20;90.00;;;;;;5037235;28;19933;-69
2022/10/09 00:45:14;;;;;;;;;;;12.30;90.00;;;;;;5038950;28;19928;-71
2022/10/09 00:47:45;;;;;;;;;;;12.20;90.00;;;;;;5033788;28;20938;-68
2022/10/09 00:50:15;;;;;;;;;;;12.20;90.00;;;;;;5034281;28;20392;-69
2022/10/09 00:52:42;;;;;;;;;;;12.20;90.00;;;;;;5034878;28;19933;-69
2022/10/09 00:55:10;;;;;;;;;;;12.20;90.10;;;;;;5042758;28;19951;-69
2022/10/09 00:57:37;;;;;;;;;;;12.20;90.10;;;;;;5039864;28;19940;-68
2022/10/09 01:00:06;;;;;;;;;;;12.10;90.10;;;;;;5038649;28;19936;-69
2022/10/09 01:02:34;;;;;;;;;;;12.10;90.10;;;;;;5033862;28;20012;-68
2022/10/09 01:05:00;;;;;;;;;;;12.10;90.10;;;;;;5042496;28;20691;-68
2022/10/09 01:07:31;;;;;;;;;;;12.10;90.10;;;;;;5038149;28;20431;-69
2022/10/09 01:10:01;;;;;;;;;;;12.00;90.10;;;;;;5034746;28;19929;-68
2022/10/09 01:12:40;;;;;;;;;;;12.00;90.10;;;;;;5042534;28;20336;-69
2022/10/09 01:15:10;;;;;;;;;;;12.00;90.10;;;;;;5042579;28;19932;-68
2022/10/09 01:17:41;;;;;;;;;;;12.00;90.10;;;;;;5040349;28;19929;-69
2022/10/09 01:20:16;;;;;;;;;;;12.00;90.20;;;;;;5033120;28;19929;-69
2022/10/09 01:22:49;;;;;;;;;;;11.90;90.20;;;;;;5027561;28;19929;-69
2022/10/09 01:25:19;;;;;;;;;;;11.90;90.30;;;;;;5040626;28;19935;-69
2022/10/09 01:27:47;;;;;;;;;;;11.90;90.30;;;;;;5035278;28;19937;-69
2022/10/09 01:30:14;;;;;;;;;;;11.90;90.30;;;;;;5040226;28;19936;-69
2022/10/09 01:32:42;;;;;;;;;;;11.80;90.40;;;;;;5036778;28;19940;-68
2022/10/09 01:35:10;;;;;;;;;;;11.90;90.40;;;;;;5036295;28;19929;-68
2022/10/09 01:37:38;;;;;;;;;;;11.80;90.40;;;;;;5030729;28;19940;-69
2022/10/09 01:40:05;;;;;;;;;;;11.80;90.40;;;;;;5039525;28;19929;-69
2022/10/09 01:42:32;;;;;;;;;;;11.80;90.50;;;;;;5038033;28;19933;-69
2022/10/09 01:45:00;;;;;;;;;;;11.80;90.50;;;;;;5039286;28;19936;-68
2022/10/09 01:47:27;;;;;;;;;;;11.70;90.50;;;;;;5034344;28;19940;-69
2022/10/09 01:49:54;;;;;;;;;;;11.70;90.50;;;;;;5045983;28;20305;-68
2022/10/09 01:52:28;;;;;;;;;;;11.70;90.50;;;;;;5028294;28;20582;-68
2022/10/09 01:54:59;;;;;;;;;;;11.70;90.60;;;;;;5045938;28;19929;-68
2022/10/09 01:57:28;;;;;;;;;;;11.70;90.60;;;;;;5039380;28;19936;-69
2022/10/09 01:59:56;;;;;;;;;;;11.70;90.60;;;;;;5046316;28;19929;-69
2022/10/09 02:02:24;;;;;;;;;;;11.60;90.60;;;;;;5036650;28;19954;-68
2022/10/09 02:04:51;;;;;;;;;;;11.60;90.60;;;;;;5040616;28;19928;-68
2022/10/09 02:07:17;;;;;;;;;;;11.60;90.60;;;;;;5045866;28;19932;-68
2022/10/09 02:09:45;;;;;;;;;;;11.60;90.60;;;;;;5046336;28;19936;-69
2022/10/09 02:12:12;;;;;;;;;;;11.50;90.60;;;;;;5044432;28;19940;-68
2022/10/09 02:14:39;;;;;;;;;;;11.50;90.70;;;;;;5044196;28;19952;-69
2022/10/09 02:17:08;;;;;;;;;;;11.50;90.70;;;;;;5042600;28;19948;-68
2022/10/09 02:19:38;;;;;;;;;;;11.50;90.70;;;;;;5032933;28;19929;-69
2022/10/09 02:22:07;;;;;;;;;;;11.50;90.70;;;;;;5039597;28;19936;-69
2022/10/09 02:24:36;;;;;;;;;;;11.40;90.70;;;;;;5038852;28;19929;-68
2022/10/09 02:27:03;;;;;;;;;;;11.40;90.70;;;;;;5043527;28;19929;-68
2022/10/09 02:29:30;;;;;;;;;;;11.40;90.70;;;;;;5039625;28;19960;-68
2022/10/09 02:31:56;;;;;;;;;;;11.40;90.80;;;;;;5035634;28;20404;-68
2022/10/09 02:34:23;;;;;;;;;;;11.40;90.80;;;;;;5038725;28;19936;-68
2022/10/09 02:36:51;;;;;;;;;;;11.40;90.80;;;;;;5038207;28;19935;-68
2022/10/09 02:39:17;;;;;;;;;;;11.30;90.80;;;;;;5040289;28;20439;-68
2022/10/09 02:41:44;;;;;;;;;;;11.40;90.90;;;;;;5038764;28;19939;-69
2022/10/09 02:44:11;;;;;;;;;;;11.30;90.80;;;;;;5042180;28;19928;-68
2022/10/09 02:46:37;;;;;;;;;;;11.30;90.80;;;;;;5043909;28;19925;-68
2022/10/09 02:49:04;;;;;;;;;;;11.30;90.90;;;;;;5044202;28;19998;-68
2022/10/09 02:51:30;;;;;;;;;;;11.30;90.90;;;;;;5035981;28;19936;-69
2022/10/09 02:53:59;;;;;;;;;;;11.30;90.90;;;;;;5045316;28;20411;-68
2022/10/09 02:56:26;;;;;;;;;;;11.20;90.90;;;;;;5044070;28;20051;-68
2022/10/09 02:58:53;;;;;;;;;;;11.20;90.90;;;;;;5037932;28;19928;-68
2022/10/09 03:01:19;;;;;;;;;;;11.20;90.90;;;;;;5042342;28;20478;-69
2022/10/09 03:03:46;;;;;;;;;;;11.20;90.90;;;;;;5035407;28;19929;-68
2022/10/09 03:06:14;;;;;;;;;;;11.20;90.90;;;;;;5044398;28;19928;-68
2022/10/09 03:08:42;;;;;;;;;;;11.20;90.90;;;;;;5044881;28;19928;-68
2022/10/09 03:11:12;;;;;;;;;;;11.10;90.90;;;;;;5041101;28;19933;-68
2022/10/09 03:13:39;;;;;;;;;;;11.10;90.90;;;;;;5041015;28;19944;-68
2022/10/09 03:16:06;;;;;;;;;;;11.10;91.00;;;;;;5043471;28;19936;-68
2022/10/09 03:18:33;;;;;;;;;;;11.10;91.00;;;;;;5038725;28;20412;-68
2022/10/09 03:21:00;;;;;;;;;;;11.10;91.00;;;;;;5038023;28;19951;-69
2022/10/09 03:23:27;;;;;;;;;;;11.00;90.90;;;;;;5041011;28;19929;-69
2022/10/09 03:25:56;;;;;;;;;;;11.00;90.90;;;;;;5044617;28;19928;-69
2022/10/09 03:28:24;;;;;;;;;;;11.00;91.00;;;;;;5034248;28;19928;-68
2022/10/09 03:30:51;;;;;;;;;;;11.00;91.00;;;;;;5035796;28;19929;-68
2022/10/09 03:33:17;;;;;;;;;;;11.00;91.00;;;;;;5036900;28;19929;-69
2022/10/09 03:35:45;;;;;;;;;;;11.00;91.00;;;;;;5035744;28;19944;-69
2022/10/09 03:38:11;;;;;;;;;;;10.90;91.00;;;;;;5037022;28;19928;-68
2022/10/09 03:40:38;;;;;;;;;;;10.90;91.00;;;;;;5033877;28;19936;-68
2022/10/09 03:43:04;;;;;;;;;;;10.90;91.00;;;;;;5043097;28;19928;-69
2022/10/09 03:45:32;;;;;;;;;;;10.90;91.00;;;;;;5040870;28;20456;-68
2022/10/09 03:47:59;;;;;;;;;;;10.90;91.00;;;;;;5035800;28;19933;-68
2022/10/09 03:50:25;;;;;;;;;;;10.80;91.00;;;;;;5038272;28;19932;-68
2022/10/09 03:52:52;;;;;;;;;;;10.80;91.00;;;;;;5032972;28;19936;-69
2022/10/09 03:55:19;;;;;;;;;;;10.80;91.00;;;;;;5041218;28;19933;-68
2022/10/09 03:57:45;;;;;;;;;;;10.80;91.00;;;;;;5038307;28;19982;-68
2022/10/09 04:00:12;;;;;;;;;;;10.80;91.10;;;;;;5037776;28;20003;-68
2022/10/09 04:02:40;;;;;;;;;;;10.80;91.10;;;;;;5030013;28;19981;-68
2022/10/09 04:05:07;;;;;;;;;;;10.80;91.10;;;;;;5034863;28;19979;-68
2022/10/09 04:07:34;;;;;;;;;;;10.70;91.10;;;;;;5038829;28;20458;-68
2022/10/09 04:10:00;;;;;;;;;;;10.70;91.10;;;;;;5042410;28;19995;-68
2022/10/09 04:12:27;;;;;;;;;;;10.70;91.10;;;;;;5038998;28;19983;-68
2022/10/09 04:14:53;;;;;;;;;;;10.70;91.10;;;;;;5041068;28;20002;-68
2022/10/09 04:17:20;;;;;;;;;;;10.70;91.10;;;;;;5037047;28;20003;-68
2022/10/09 04:19:48;;;;;;;;;;;10.60;91.10;;;;;;5036926;28;20007;-68
2022/10/09 04:22:14;;;;;;;;;;;10.60;91.10;;;;;;5036498;28;19980;-68
2022/10/09 04:24:41;;;;;;;;;;;10.60;91.10;;;;;;5037614;28;19976;-68
2022/10/09 04:27:08;;;;;;;;;;;10.60;91.10;;;;;;5034068;28;19979;-68
2022/10/09 04:29:34;;;;;;;;;;;10.60;91.10;;;;;;5035921;28;19999;-68
2022/10/09 04:32:01;;;;;;;;;;;10.60;91.10;;;;;;5039766;28;19994;-68
2022/10/09 04:34:27;;;;;;;;;;;10.50;91.10;;;;;;5042843;28;19995;-68
2022/10/09 04:36:55;;;;;;;;;;;10.50;91.10;;;;;;5034697;28;19972;-68
2022/10/09 04:39:22;;;;;;;;;;;10.50;91.10;;;;;;5040647;28;19992;-68
2022/10/09 04:41:48;;;;;;;;;;;10.50;91.10;;;;;;5035152;28;19980;-68
2022/10/09 04:44:15;;;;;;;;;;;10.40;91.10;;;;;;5041127;28;20014;-68
2022/10/09 04:46:42;;;;;;;;;;;10.50;91.20;;;;;;5039188;28;19992;-68
2022/10/09 04:49:11;;;;;;;;;;;10.40;91.10;;;;;;5037433;28;19995;-68
2022/10/09 04:51:37;;;;;;;;;;;10.40;91.10;;;;;;5037416;28;19977;-68
2022/10/09 04:54:05;;;;;;;;;;;10.40;91.10;;;;;;5037286;28;19996;-68
2022/10/09 04:56:32;;;;;;;;;;;10.40;91.10;;;;;;5041184;28;19983;-68
2022/10/09 04:58:59;;;;;;;;;;;10.40;91.20;;;;;;5040137;28;20002;-68
2022/10/09 05:01:27;;;;;;;;;;;10.40;91.20;;;;;;5028813;28;19992;-68
2022/10/09 05:03:53;;;;;;;;;;;10.30;91.10;;;;;;5039452;28;19983;-68
2022/10/09 05:06:21;;;;;;;;;;;10.30;91.20;;;;;;5036587;28;19987;-69
2022/10/09 05:08:48;;;;;;;;;;;10.40;91.20;;;;;;5042614;28;20553;-68
2022/10/09 05:11:17;;;;;;;;;;;10.30;91.20;;;;;;5041844;28;19986;-68
2022/10/09 05:13:44;;;;;;;;;;;10.30;91.20;;;;;;5037602;28;19996;-68
2022/10/09 05:16:12;;;;;;;;;;;10.20;91.20;;;;;;5033165;28;20092;-68
2022/10/09 05:18:41;;;;;;;;;;;10.30;91.30;;;;;;5037620;28;20016;-68
2022/10/09 05:21:08;;;;;;;;;;;10.20;91.30;;;;;;5031416;28;20574;-68
2022/10/09 05:23:35;;;;;;;;;;;10.20;91.30;;;;;;5040963;28;20003;-68
2022/10/09 05:26:02;;;;;;;;;;;10.20;91.30;;;;;;5032014;28;20455;-68
2022/10/09 05:28:31;;;;;;;;;;;10.20;91.30;;;;;;5039314;28;20315;-68
2022/10/09 05:30:57;;;;;;;;;;;10.20;91.30;;;;;;5042136;28;20538;-68
2022/10/09 05:33:24;;;;;;;;;;;10.20;91.30;;;;;;5038760;28;19998;-68
2022/10/09 05:35:51;;;;;;;;;;;10.10;91.60;;;;;;5044859;28;19983;-68
2022/10/09 05:38:18;;;;;;;;;;;10.10;91.30;;;;;;5043652;28;20053;-68
2022/10/09 05:40:50;;;;;;;;;;;10.10;91.30;;;;;;5037873;28;20428;-68
2022/10/09 05:43:16;;;;;;;;;;;10.10;91.30;;;;;;5041487;28;19980;-69
2022/10/09 05:45:44;;;;;;;;;;;10.00;91.30;;;;;;5043867;28;19992;-68
2022/10/09 05:48:11;;;;;;;;;;;10.00;91.40;;;;;;5041669;28;19979;-68
2022/10/09 05:50:37;;;;;;;;;;;10.00;91.40;;;;;;5044198;28;19972;-68
2022/10/09 05:53:04;;;;;;;;;;;10.00;91.40;;;;;;5038512;28;19980;-68
2022/10/09 05:55:30;;;;;;;;;;;10.00;91.40;;;;;;5046230;28;19975;-68
2022/10/09 05:57:57;;;;;;;;;;;10.00;91.40;;;;;;5043004;28;20114;-68
2022/10/09 06:00:24;;;;;;;;;;;10.00;91.40;;;;;;5036469;28;19988;-68
2022/10/09 06:02:51;;;;;;;;;;;10.00;91.40;;;;;;5041375;28;19980;-68
2022/10/09 06:05:18;;;;;;;;;;;9.90;91.50;;;;;;5038998;28;19972;-68
2022/10/09 06:07:45;;;;;;;;;;;9.90;91.40;;;;;;5035973;28;19984;-68
2022/10/09 06:10:12;;;;;;;;;;;9.90;91.40;;;;;;5039279;28;20003;-68
2022/10/09 06:12:38;;;;;;;;;;;9.90;91.50;;;;;;5043942;28;19976;-68
2022/10/09 06:15:05;;;;;;;;;;;9.90;91.50;;;;;;5040379;28;19995;-69
2022/10/09 06:17:32;;;;;;;;;;;9.90;91.50;;;;;;5032682;28;19984;-68
2022/10/09 06:20:00;;;;;;;;;;;9.90;91.60;;;;;;5033592;28;20022;-68
2022/10/09 06:22:27;;;;;;;;;;;9.80;91.50;;;;;;5036097;28;19976;-68
2022/10/09 06:24:53;;;;;;;;;;;9.80;91.50;;;;;;5033119;28;19990;-68
2022/10/09 06:27:20;;;;;;;;;;;9.80;91.90;;;;;;5036114;28;19980;-68
2022/10/09 06:29:46;;;;;;;;;;;9.80;91.60;;;;;;5040318;28;19996;-68
2022/10/09 06:32:13;;;;;;;;;;;9.80;91.60;;;;;;5033045;28;20015;-68
2022/10/09 06:34:40;;;;;;;;;;;9.70;91.60;;;;;;5039097;28;19992;-69
2022/10/09 06:37:07;;;;;;;;;;;9.80;91.60;;;;;;5038407;28;19980;-68
2022/10/09 06:39:34;;;;;;;;;;;9.70;91.70;;;;;;5043755;28;19988;-68
2022/10/09 06:42:02;;;;;;;;;;;9.70;91.70;;;;;;5038565;28;19980;-69
2022/10/09 06:44:29;;;;;;;;;;;9.70;91.80;;;;;;5042073;28;19980;-68
2022/10/09 06:46:56;;;;;;;;;;;9.70;91.80;;;;;;5039992;28;19999;-68
2022/10/09 06:49:22;;;;;;;;;;;9.70;91.80;;;;;;5035261;28;20581;-69
2022/10/09 06:51:49;;;;;;;;;;;9.70;91.80;;;;;;5034066;28;19976;-69
2022/10/09 06:54:17;;;;;;;;;;;9.70;91.80;;;;;;5041909;28;20531;-68
2022/10/09 06:56:43;;;;;;;;;;;9.70;91.80;;;;;;5044046;28;20363;-68
2022/10/09 06:59:11;;;;;;;;;;;9.70;91.80;;;;;;5043569;28;20038;-68
2022/10/09 07:01:37;;;;;;;;;;;9.70;91.90;;;;;;5033086;28;20015;-68
2022/10/09 07:04:05;;;;;;;;;;;9.60;91.90;;;;;;5037253;28;19987;-68
2022/10/09 07:06:32;;;;;;;;;;;9.60;91.90;;;;;;5045326;28;19976;-68
2022/10/09 07:09:00;;;;;;;;;;;9.70;91.90;;;;;;5043917;28;19999;-68
2022/10/09 07:11:30;;;;;;;;;;;9.60;92.00;;;;;;5042533;28;19991;-68
2022/10/09 07:13:58;;;;;;;;;;;9.60;92.00;;;;;;5039040;28;19995;-68
2022/10/09 07:16:25;;;;;;;;;;;9.60;92.00;;;;;;5034954;28;20471;-68
2022/10/09 07:18:52;;;;;;;;;;;9.60;92.00;;;;;;5033624;28;20002;-68
2022/10/09 07:21:19;;;;;;;;;;;9.60;92.00;;;;;;5036219;28;19976;-69
2022/10/09 07:23:46;;;;;;;;;;;9.60;92.10;;;;;;5035677;28;20031;-68
2022/10/09 07:26:13;;;;;;;;;;;9.60;92.10;;;;;;5033496;28;19980;-68
2022/10/09 07:28:42;;;;;;;;;;;9.60;92.10;;;;;;5035322;28;19995;-68
2022/10/09 07:31:09;;;;;;;;;;;9.60;92.10;;;;;;5041634;28;19999;-68
2022/10/09 07:33:36;;;;;;;;;;;9.60;92.10;;;;;;5042523;28;19976;-68
2022/10/09 07:36:03;;;;;;;;;;;9.60;92.20;;;;;;5043640;28;19987;-69
2022/10/09 07:38:30;;;;;;;;;;;9.60;92.20;;;;;;5041695;28;19998;-68
2022/10/09 07:40:59;;;;;;;;;;;9.60;92.20;;;;;;5042818;28;19976;-68
2022/10/09 07:43:26;;;;;;;;;;;9.60;92.30;;;;;;5036066;28;19976;-68
2022/10/09 07:45:57;;;;;;;;;;;9.50;92.30;;;;;;5042049;28;20128;-68
2022/10/09 07:48:24;;;;;;;;;;;9.50;92.30;;;;;;5032255;28;20530;-68
2022/10/09 07:50:50;;;;;;;;;;;9.50;92.40;;;;;;5036246;28;19983;-68
2022/10/09 07:53:17;;;;;;;;;;;9.50;92.40;;;;;;5035504;28;19980;-68
2022/10/09 07:55:44;;;;;;;;;;;9.50;92.40;;;;;;5043501;28;20485;-68
2022/10/09 07:58:11;;;;;;;;;;;9.50;92.50;;;;;;5040621;28;19979;-68
2022/10/09 08:00:37;;;;;;;;;;;9.60;92.50;;;;;;5043368;28;20000;-68
2022/10/09 08:03:05;;;;;;;;;;;9.50;92.50;;;;;;5033660;28;19988;-68
2022/10/09 08:05:32;;;;;;;;;;;9.60;92.60;;;;;;5039330;28;19987;-68
2022/10/09 08:07:58;;;;;;;;;;;9.60;92.60;;;;;;5043665;28;19976;-68
2022/10/09 08:10:25;;;;;;;;;;;9.60;92.70;;;;;;5043949;28;19986;-68
2022/10/09 08:12:52;;;;;;;;;;;9.60;93.00;;;;;;5041056;28;19983;-68
2022/10/09 08:15:19;;;;;;;;;;;9.60;92.80;;;;;;5032294;28;19991;-68
2022/10/09 08:17:45;;;;;;;;;;;9.60;92.80;;;;;;5042850;28;19971;-68
2022/10/09 08:20:13;;;;;;;;;;;9.60;92.80;;;;;;5034180;28;20002;-68
2022/10/09 08:22:40;;;;;;;;;;;9.60;92.80;;;;;;5041815;28;19987;-69
2022/10/09 08:25:07;;;;;;;;;;;9.60;92.80;;;;;;5042012;28;19980;-68
2022/10/09 08:27:34;;;;;;;;;;;9.70;92.80;;;;;;5033353;28;19976;-68
2022/10/09 08:30:00;;;;;;;;;;;9.70;92.80;;;;;;5038943;28;20003;-68
2022/10/09 08:32:27;;;;;;;;;;;9.70;92.80;;;;;;5042824;28;19994;-68
2022/10/09 08:34:53;;;;;;;;;;;9.70;92.80;;;;;;5039495;28;20052;-69
2022/10/09 08:37:21;;;;;;;;;;;9.70;92.70;;;;;;5032676;28;20288;-69
2022/10/09 08:39:48;;;;;;;;;;;9.70;92.70;;;;;;5041356;28;19992;-68
2022/10/09 08:42:26;;;;;;;;;;;9.70;92.70;;;;;;5035154;28;20014;-69
2022/10/09 08:44:53;;;;;;;;;;;9.80;92.70;;;;;;5034999;28;19995;-69
2022/10/09 08:47:21;;;;;;;;;;;9.80;92.70;;;;;;5027891;28;20495;-69
2022/10/09 08:49:50;;;;;;;;;;;9.80;92.70;;;;;;5036013;28;20524;-69
2022/10/09 08:52:21;;;;;;;;;;;9.90;92.80;;;;;;5032698;28;20330;-68
2022/10/09 08:54:50;;;;;;;;;;;9.90;92.80;;;;;;5042634;28;20002;-69
2022/10/09 08:57:16;;;;;;;;;;;9.90;92.80;;;;;;5035467;28;19976;-68
2022/10/09 08:59:43;;;;;;;;;;;9.90;92.80;;;;;;5041694;28;20003;-69
2022/10/09 09:02:20;;;;;;;;;;;9.90;92.80;;;;;;5031572;28;20460;-69
2022/10/09 09:04:50;;;;;;;;;;;9.90;92.90;;;;;;5041825;28;19983;-69
2022/10/09 09:07:21;;;;;;;;;;;9.90;92.90;;;;;;5040851;28;19979;-69
2022/10/09 09:09:52;;;;;;;;;;;9.90;92.90;;;;;;5038830;28;19992;-69
2022/10/09 09:12:21;;;;;;;;;;;10.00;92.90;;;;;;5040917;28;19976;-69
2022/10/09 09:14:55;;;;;;;;;;;10.00;92.90;;;;;;5042005;28;19992;-69
2022/10/09 09:17:30;;;;;;;;;;;10.00;92.90;;;;;;5035732;28;20537;-69
2022/10/09 09:20:03;;;;;;;;;;;10.10;92.90;;;;;;5032694;28;20003;-69
2022/10/09 09:22:30;;;;;;;;;;;10.20;92.90;;;;;;5040048;28;19975;-69
2022/10/09 09:24:59;;;;;;;;;;;10.30;92.80;;;;;;5042906;28;19976;-69
2022/10/09 09:27:28;;;;;;;;;;;10.30;92.70;;;;;;5029623;28;20685;-69
2022/10/09 09:29:58;;;;;;;;;;;10.40;92.50;;;;;;5040585;28;20089;-69
2022/10/09 09:32:27;;;;;;;;;;;10.50;92.30;;;;;;5030286;28;19992;-69
2022/10/09 09:34:56;;;;;;;;;;;10.60;92.10;;;;;;5039307;28;19999;-69
2022/10/09 09:37:23;;;;;;;;;;;10.70;92.00;;;;;;5039348;28;19976;-69
2022/10/09 09:39:49;;;;;;;;;;;10.80;91.80;;;;;;5036681;28;20038;-69
2022/10/09 09:42:18;;;;;;;;;;;10.90;91.70;;;;;;5032800;28;19984;-69
2022/10/09 09:44:47;;;;;;;;;;;11.00;91.50;;;;;;5041578;28;19983;-69
2022/10/09 09:47:15;;;;;;;;;;;11.10;91.40;;;;;;5030679;28;20023;-69
2022/10/09 09:49:52;;;;;;;;;;;11.20;91.20;;;;;;5041156;28;19998;-69
2022/10/09 09:52:19;;;;;;;;;;;11.20;91.00;;;;;;5032279;28;19983;-69
2022/10/09 09:54:47;;;;;;;;;;;11.40;90.90;;;;;;5041896;28;20018;-69
2022/10/09 09:57:17;;;;;;;;;;;11.40;90.70;;;;;;5035318;28;20359;-69
2022/10/09 09:59:45;;;;;;;;;;;11.50;90.60;;;;;;5038276;28;20003;-69
2022/10/09 10:02:14;;;;;;;;;;;11.60;90.40;;;;;;5028593;28;19996;-69
2022/10/09 10:04:48;;;;;;;;;;;11.60;90.30;;;;;;5036750;28;19975;-69
2022/10/09 10:07:14;;;;;;;;;;;11.70;90.30;;;;;;5039564;28;19988;-69
2022/10/09 10:09:41;;;;;;;;;;;11.80;90.20;;;;;;5030524;28;19991;-69
2022/10/09 10:12:14;;;;;;;;;;;11.90;90.20;;;;;;5036316;28;19984;-69
2022/10/09 10:14:48;;;;;;;;;;;12.00;90.20;;;;;;5043847;28;19972;-69
2022/10/09 10:17:24;;;;;;;;;;;12.00;90.10;;;;;;5040037;28;19995;-69
2022/10/09 10:19:51;;;;;;;;;;;12.10;90.10;;;;;;5041136;28;19995;-69
2022/10/09 10:22:22;;;;;;;;;;;12.20;90.00;;;;;;5043454;28;19984;-69
2022/10/09 10:24:49;;;;;;;;;;;12.20;89.70;;;;;;5040136;28;20470;-69
2022/10/09 10:27:20;;;;;;;;;;;12.30;89.50;;;;;;5037265;28;19986;-69
2022/10/09 10:29:47;;;;;;;;;;;12.40;89.20;;;;;;5042649;28;19999;-69
2022/10/09 10:32:15;;;;;;;;;;;12.50;88.90;;;;;;5040867;28;19995;-69
2022/10/09 10:34:45;;;;;;;;;;;12.50;88.40;;;;;;5039808;28;19999;-69
2022/10/09 10:37:21;;;;;;;;;;;12.60;88.20;;;;;;5045556;28;19980;-70
2022/10/09 10:39:49;;;;;;;;;;;12.70;88.10;;;;;;5045232;28;20431;-69
2022/10/09 10:42:19;;;;;;;;;;;12.80;87.90;;;;;;5039352;28;20058;-69
2022/10/09 10:44:48;;;;;;;;;;;12.90;87.50;;;;;;5045052;28;19995;-68
2022/10/09 10:47:18;;;;;;;;;;;12.90;86.90;;;;;;5036385;28;20471;-69
2022/10/09 10:49:46;;;;;;;;;;;13.00;86.70;;;;;;5042237;28;20402;-69
2022/10/09 10:52:18;;;;;;;;;;;13.00;86.10;;;;;;5040617;28;19994;-69
2022/10/09 10:54:48;;;;;;;;;;;13.10;85.90;;;;;;5044868;28;20466;-69
2022/10/09 10:57:16;;;;;;;;;;;13.20;86.00;;;;;;5042284;28;19987;-69
2022/10/09 10:59:48;;;;;;;;;;;13.30;85.80;;;;;;5041104;28;19991;-69
2022/10/09 11:02:33;;;;;;;;;;;13.30;85.60;;;;;;5039486;28;20000;-69
2022/10/09 11:05:05;;;;;;;;;;;13.40;85.60;;;;;;5040476;28;19983;-69
2022/10/09 11:07:35;;;;;;;;;;;13.50;85.30;;;;;;5041273;28;20459;-69
2022/10/09 11:10:06;;;;;;;;;;;13.60;85.00;;;;;;5041642;28;19996;-69
2022/10/09 11:12:35;;;;;;;;;;;13.60;85.00;;;;;;5042738;28;19976;-68
2022/10/09 11:15:07;;;;;;;;;;;13.70;84.60;;;;;;5041607;28;19987;-69
2022/10/09 11:17:39;;;;;;;;;;;13.80;84.00;;;;;;5040304;28;19999;-69
2022/10/09 11:20:15;;;;;;;;;;;13.80;83.50;;;;;;5039143;28;20643;-69
2022/10/09 11:23:02;;;;;;;;;;;13.80;84.00;;;;;;5042961;28;19975;-69
2022/10/09 11:25:30;;;;;;;;;;;13.90;83.30;;;;;;5042370;28;20336;-68
2022/10/09 11:27:58;;;;;;;;;;;14.00;83.30;;;;;;5039123;28;19975;-69
2022/10/09 11:30:27;;;;;;;;;;;14.10;83.40;;;;;;5043680;28;20035;-69
2022/10/09 11:32:57;;;;;;;;;;;14.10;83.00;;;;;;5038575;28;20000;-69
2022/10/09 11:35:27;;;;;;;;;;;14.20;82.80;;;;;;5044386;28;19987;-69
2022/10/09 11:37:57;;;;;;;;;;;14.30;82.70;;;;;;5041660;28;19980;-68
2022/10/09 11:40:25;;;;;;;;;;;14.40;82.10;;;;;;5043277;28;19980;-69
2022/10/09 11:42:56;;;;;;;;;;;14.40;82.20;;;;;;5039299;28;19975;-69
2022/10/09 11:45:28;;;;;;;;;;;14.40;81.90;;;;;;5039920;28;20517;-69
2022/10/09 11:47:57;;;;;;;;;;;14.50;81.90;;;;;;5036288;28;20762;-69
2022/10/09 11:50:33;;;;;;;;;;;14.50;81.50;;;;;;5042298;28;19976;-69
2022/10/09 11:53:03;;;;;;;;;;;14.60;81.20;;;;;;5039607;28;19975;-69
2022/10/09 11:55:31;;;;;;;;;;;14.70;80.60;;;;;;5043769;28;20418;-69
2022/10/09 11:58:06;;;;;;;;;;;14.80;80.30;;;;;;5041135;28;20002;-69
2022/10/09 12:00:35;;;;;;;;;;;14.80;80.50;;;;;;5032210;28;20094;-69
2022/10/09 12:03:03;;;;;;;;;;;14.90;80.00;;;;;;5037846;28;20015;-68
2022/10/09 12:05:36;;;;;;;;;;;14.90;79.80;;;;;;5037793;28;19980;-69
2022/10/09 12:08:06;;;;;;;;;;;15.00;79.90;;;;;;5042501;28;19987;-69
2022/10/09 12:10:34;;;;;;;;;;;15.10;79.70;;;;;;5034362;28;19988;-68
2022/10/09 12:13:02;;;;;;;;;;;15.10;79.40;;;;;;5041839;28;19982;-69
2022/10/09 12:15:36;;;;;;;;;;;15.20;79.40;;;;;;5033338;28;20000;-69
2022/10/09 12:18:13;;;;;;;;;;;15.20;79.20;;;;;;5040413;28;19979;-68
2022/10/09 12:20:44;;;;;;;;;;;15.20;79.20;;;;;;5042143;28;20469;-69
2022/10/09 12:23:11;;;;;;;;;;;15.30;78.40;;;;;;5035312;28;19976;-69
2022/10/09 12:25:40;;;;;;;;;;;15.40;77.20;;;;;;5037018;28;19999;-68
2022/10/09 12:28:14;;;;;;;;;;;15.40;77.40;;;;;;5037587;28;20006;-69
2022/10/09 12:30:41;;;;;;;;;;;15.50;76.80;;;;;;5041612;28;20003;-69
2022/10/09 12:33:15;;;;;;;;;;;15.50;76.90;;;;;;5040163;28;20620;-69
2022/10/09 12:35:45;;;;;;;;;;;15.60;76.90;;;;;;5034460;28;19999;-69
2022/10/09 12:38:16;;;;;;;;;;;15.60;75.80;;;;;;5036969;28;19980;-69
2022/10/09 12:40:45;;;;;;;;;;;15.70;76.30;;;;;;5036382;28;19976;-69
2022/10/09 12:43:16;;;;;;;;;;;15.80;76.60;;;;;;5039569;28;19987;-69
2022/10/09 12:45:43;;;;;;;;;;;15.80;76.30;;;;;;5042436;28;20002;-69
2022/10/09 12:48:11;;;;;;;;;;;15.80;75.70;;;;;;5036296;28;19980;-69
2022/10/09 12:50:38;;;;;;;;;;;15.90;76.10;;;;;;5036866;28;20011;-70
2022/10/09 12:53:12;;;;;;;;;;;15.90;75.80;;;;;;5031786;28;19976;-69
2022/10/09 12:55:41;;;;;;;;;;;16.00;75.60;;;;;;5038108;28;19976;-69
2022/10/09 12:58:08;;;;;;;;;;;16.00;75.50;;;;;;5039549;28;19983;-69
2022/10/09 13:00:35;;;;;;;;;;;16.10;76.10;;;;;;5035876;28;19996;-69
2022/10/09 13:03:02;;;;;;;;;;;16.10;75.30;;;;;;5031057;28;20381;-69
2022/10/09 13:05:36;;;;;;;;;;;16.20;74.80;;;;;;5035006;28;19976;-68
2022/10/09 13:08:03;;;;;;;;;;;16.20;74.90;;;;;;5039333;28;19986;-68
2022/10/09 13:10:31;;;;;;;;;;;16.20;74.90;;;;;;5038146;28;19986;-69
2022/10/09 13:12:58;;;;;;;;;;;16.30;75.60;;;;;;5040677;28;20492;-68
2022/10/09 13:15:33;;;;;;;;;;;16.30;74.50;;;;;;5036785;28;20149;-70
2022/10/09 13:17:59;;;;;;;;;;;16.40;73.30;;;;;;5039651;28;19982;-69
2022/10/09 13:20:27;;;;;;;;;;;16.40;72.70;;;;;;5036027;28;20459;-68
2022/10/09 13:22:54;;;;;;;;;;;16.50;72.90;;;;;;5037317;28;20585;-69
2022/10/09 13:25:21;;;;;;;;;;;16.50;73.10;;;;;;5037493;28;20416;-69
2022/10/09 13:27:49;;;;;;;;;;;16.50;73.00;;;;;;5030049;28;20049;-69
2022/10/09 13:30:16;;;;;;;;;;;16.60;73.20;;;;;;5038094;28;19991;-69
2022/10/09 13:32:42;;;;;;;;;;;16.60;73.10;;;;;;5036303;28;20475;-69
2022/10/09 13:35:09;;;;;;;;;;;16.60;73.10;;;;;;5035779;28;20332;-69
2022/10/09 13:37:36;;;;;;;;;;;16.70;72.70;;;;;;5029999;28;20198;-69
2022/10/09 13:40:04;;;;;;;;;;;16.70;72.70;;;;;;5039195;28;20490;-69
2022/10/09 13:42:35;;;;;;;;;;;16.80;72.60;;;;;;5036592;28;20070;-69
2022/10/09 13:45:03;;;;;;;;;;;16.90;72.40;;;;;;5040326;28;20180;-69
2022/10/09 13:47:30;;;;;;;;;;;16.90;72.30;;;;;;5038853;28;19991;-69
2022/10/09 13:49:56;;;;;;;;;;;16.90;72.40;;;;;;5045763;28;20002;-69
2022/10/09 13:52:23;;;;;;;;;;;17.00;72.60;;;;;;5035040;28;19980;-69
2022/10/09 13:54:49;;;;;;;;;;;17.00;72.30;;;;;;5046916;28;19975;-69
2022/10/09 13:57:16;;;;;;;;;;;17.10;72.20;;;;;;5043744;28;20008;-69
2022/10/09 13:59:42;;;;;;;;;;;17.10;71.90;;;;;;5043119;28;19998;-69
2022/10/09 14:02:11;;;;;;;;;;;17.10;71.10;;;;;;5036925;28;19992;-69
2022/10/09 14:04:37;;;;;;;;;;;17.20;71.40;;;;;;5040775;28;19975;-69
2022/10/09 14:07:04;;;;;;;;;;;17.30;71.30;;;;;;5045701;28;20431;-69
2022/10/09 14:09:31;;;;;;;;;;;17.30;71.30;;;;;;5043918;28;20371;-69
2022/10/09 14:11:57;;;;;;;;;;;17.40;71.00;;;;;;5041970;28;20018;-69
2022/10/09 14:14:24;;;;;;;;;;;17.40;70.70;;;;;;5045605;28;20063;-68
2022/10/09 14:16:50;;;;;;;;;;;17.50;70.80;;;;;;5043493;28;19995;-69
2022/10/09 14:19:18;;;;;;;;;;;17.50;70.50;;;;;;5034860;28;20083;-69
2022/10/09 14:21:46;;;;;;;;;;;17.50;70.50;;;;;;5044133;28;19978;-69
2022/10/09 14:24:13;;;;;;;;;;;17.60;70.00;;;;;;5044232;28;19976;-69